This is the latest recevied weather packets stored in our database for station/object AD7ZD. If no packets are shown the sender has not sent any weather packets the latest 10 day(s).
| Time | Temp. | Humidity | Pressure | Rain* | Wind** | Luminosity | Snow |
|---|---|---|---|---|---|---|---|
| 1777851502 | 17.22° C | 37% | 1008.4 hPa | 0 mm | - | 194 W/m² | - |
| 1777851198 | 17.78° C | 36% | 1008.5 hPa | 0 mm | - | 177 W/m² | - |
| 1777850894 | 18.33° C | 35% | 1008.5 hPa | 0 mm | - | 185 W/m² | - |
| 1777850592 | 17.78° C | 37% | 1008.7 hPa | 0 mm | - | 263 W/m² | - |
| 1777850290 | 17.22° C | 38% | 1008.7 hPa | 0 mm | - | 209 W/m² | - |
| 1777849987 | 16.67° C | 38% | 1008.7 hPa | 0 mm | - | 181 W/m² | - |
| 1777849682 | 17.22° C | 38% | 1008.7 hPa | 0 mm | - | 262 W/m² | - |
| 1777849380 | 16.67° C | 40% | 1008.8 hPa | 0 mm | - | 462 W/m² | - |
| 1777849077 | 16.11° C | 43% | 1008.9 hPa | 0 mm | - | 202 W/m² | - |
| 1777848772 | 15.56° C | 43% | 1008.9 hPa | 0 mm | - | 218 W/m² | - |
| 1777848469 | 15° C | 46% | 1009.2 hPa | 0 mm | - | 519 W/m² | - |
| 1777844360 | 18.33° C | 34% | 1007.9 hPa | 0 mm | - | 269 W/m² | - |
| 1777844058 | 18.33° C | 34% | 1007.9 hPa | 0 mm | - | 269 W/m² | - |
| 1777843754 | 18.33° C | 34% | 1007.9 hPa | 0 mm | - | 269 W/m² | - |
| 1777843452 | 18.33° C | 33% | 1008.1 hPa | 0 mm | - | 446 W/m² | - |
| 1777843150 | 17.78° C | 34% | 1008.1 hPa | 0 mm | - | 309 W/m² | - |
| 1777842846 | 17.78° C | 33% | 1008.3 hPa | 0 mm | - | 274 W/m² | - |
| 1777842541 | 17.22° C | 35% | 1008.1 hPa | 0 mm | - | 226 W/m² | - |
| 1777842239 | 17.22° C | 36% | 1008.4 hPa | 0 mm | - | 201 W/m² | - |
| 1777841933 | 17.78° C | 33% | 1008.5 hPa | 0 mm | - | 171 W/m² | - |
| 1777841630 | 18.33° C | 33% | 1008.1 hPa | 0 mm | - | 154 W/m² | - |
| 1777841327 | 19.44° C | 29% | 1008.3 hPa | 0 mm | - | 186 W/m² | - |
| 1777841024 | 22.78° C | 19% | 1007.3 hPa | 0 mm | - | 131 W/m² | - |
| 1777840721 | 22.78° C | 20% | 1007 hPa | 0 mm | - | 187 W/m² | - |
| 1777840418 | 23.33° C | 20% | 1007.2 hPa | 0 mm | - | 279 W/m² | - |
* Rain latest hour (hover to see other rain measurements)
** Current wind speed in m/s (hover to see current wind gust speed)